Holstein, IA (51025)

1:53 PM CST on February 12, 2016 (GMT -0600)
Holstein Ag Services, LLC | | Change Station
CLOSE
Current Station
Personal Weather Station
Location: Holstein, IA
Elevation: 1381 ft
Nearby Weather Stations

Elev 1381 ft 42.50 °N, 95.54 °W | Updated 27 seconds ago

Clear
Clear
12.8 °F
Feels Like -3 °F
N
16.0
Wind Variable Wind from NNW
Gusts 26.0 mph

Today
High -- | Low -- °F
--% Chance of Precip.
Yesterday
High -- | Low -- °F
Precip. -- in
Pressure 30.53 in
Visibility 10.0 miles
Clouds Clear
Windchill -3 °F
Dew Point 8 °F
Humidity 71%
Rainfall 0.44 in
Snow Depth Not available.
7:23 AM 5:49 PM
Waxing Crescent, 23% visible
METAR KCKP 121935Z AUTO 33015G21KT 10SM CLR M10/M16 A3053 RMK AO2 T11021163
Pressure 30.53 in
Visibility 10.0 miles
Clouds Clear
Windchill -3 °F
Dew Point 8 °F
Humidity 71%
Rainfall 0.44 in
Snow Depth Not available.
7:23 AM 5:49 PM
Waxing Crescent, 23% visible
METAR KCKP 121935Z AUTO 33015G21KT 10SM CLR M10/M16 A3053 RMK AO2 T11021163

10-Day Weather Forecast

Almanac

Astronomy

Feb. 12, 2016 Rise Set
Actual Time
Civil Twilight
Nautical Twilight
Astronomical Twilight
Moon
Length of Visible Light
Length of Day
Tomorrow will be .
, % of the Moon is Illuminated

Today's Extremes

State Highs State Lows

Community

WunderPhotos

Upload Photos

1,892,381 photos uploaded!

WunderBlog® & News

Nearby

Air Quality

  Air Quality AQ Index Pollutant
Not available.

Snow Depth

Station Depth Elevation

Earthquake Activity

City Distance Mag. Time & Date
Minimum magnitude displayed is 2.5.

Coastal Water Temperatures

Place Temperature

Stations

Nearby Weather Stations

Station Location Temp. Windchill Dew Point Humidity Wind Precip. Elev Updated Type
                   

Watches & Warnings

There are currently no watches in effect.